Time;durP1;ratioP1;P1;durP2;ratioP2;P2;SDS_P1;SDS_P2;PMS_P1;PMS_P2;Temp;Humidity;BMP_temperature;BMP_pressure;BME280_temperature;BME280_humidity;BME280_pressure;Samples;Min_cycle;Max_cycle;Signal;HPM_P1;HPM_P2
2022/06/11 00:00:13;;;;;;;;;;;;;;;15.03;100.00;101971.97;5004771;28;19932;-34
2022/06/11 00:02:41;;;;;;;;;;;;;;;15.04;100.00;101976.47;5002935;28;20367;-31
2022/06/11 00:05:09;;;;;;;;;;;;;;;15.04;100.00;101980.13;5004071;28;19921;-31
2022/06/11 00:07:37;;;;;;;;;;;;;;;15.03;100.00;101978.44;5002982;28;19935;-31
2022/06/11 00:10:05;;;;;;;;;;;;;;;15.04;100.00;101985.75;5004327;28;20441;-31
2022/06/11 00:12:33;;;;;;;;;;;;;;;15.05;100.00;101986.56;5001893;28;19944;-30
2022/06/11 00:15:03;;;;;;;;;;;;;;;15.04;100.00;101984.91;5004813;28;19932;-31
2022/06/11 00:17:31;;;;;;;;;;;;;;;15.05;100.00;101978.13;5002514;28;20366;-33
2022/06/11 00:19:59;;;;;;;;;;;;;;;15.05;100.00;101980.94;5004540;28;19921;-29
2022/06/11 00:22:26;;;;;;;;;;;;;;;15.04;100.00;101982.09;5002607;28;19926;-31
2022/06/11 00:24:54;;;;;;;;;;;;;;;15.04;100.00;101984.91;4999680;28;20368;-31
2022/06/11 00:27:22;;;;;;;;;;;;;;;15.04;100.00;101973.66;5004213;28;19995;-30
2022/06/11 00:29:52;;;;;;;;;;;;;;;15.04;100.00;101976.47;5004918;28;20441;-30
2022/06/11 00:32:21;;;;;;;;;;;;;;;15.02;100.00;101975.94;5004050;28;19936;-32
2022/06/11 00:34:49;;;;;;;;;;;;;;;15.01;100.00;101979.88;5020205;28;20012;-28
2022/06/11 00:37:17;;;;;;;;;;;;;;;15.00;100.00;101979.03;5003622;28;19965;-33
2022/06/11 00:39:45;;;;;;;;;;;;;;;15.00;100.00;101981.84;4999017;28;19948;-30
2022/06/11 00:42:14;;;;;;;;;;;;;;;14.99;100.00;101985.78;5006883;28;19922;-31
2022/06/11 00:44:42;;;;;;;;;;;;;;;14.96;100.00;101978.00;5004686;28;19926;-29
2022/06/11 00:47:14;;;;;;;;;;;;;;;14.96;100.00;101980.81;5003826;28;19921;-32
2022/06/11 00:49:46;;;;;;;;;;;;;;;14.96;100.00;101974.34;5004934;28;20015;-31
2022/06/11 00:52:17;;;;;;;;;;;;;;;14.95;100.00;101972.66;5004513;28;20297;-32
2022/06/11 00:54:47;;;;;;;;;;;;;;;14.92;100.00;101971.28;5003903;28;19925;-32
2022/06/11 00:57:16;;;;;;;;;;;;;;;14.90;100.00;101973.56;5010817;28;20031;-29
2022/06/11 00:59:47;;;;;;;;;;;;;;;14.90;100.00;101969.91;5002628;28;19921;-33
2022/06/11 01:02:15;;;;;;;;;;;;;;;14.89;100.00;101962.63;5004236;28;20012;-31
2022/06/11 01:04:48;;;;;;;;;;;;;;;14.88;100.00;101963.75;5001850;28;19952;-29
2022/06/11 01:07:24;;;;;;;;;;;;;;;14.85;100.00;101953.13;5003441;28;19980;-31
2022/06/11 01:10:00;;;;;;;;;;;;;;;14.83;100.00;101962.69;5002403;28;20367;-31
2022/06/11 01:12:31;;;;;;;;;;;;;;;14.81;100.00;101970.56;5004072;28;19921;-33
2022/06/11 01:15:04;;;;;;;;;;;;;;;14.81;100.00;101979.00;5001146;28;20367;-32
2022/06/11 01:17:35;;;;;;;;;;;;;;;14.78;100.00;101959.13;5019316;28;20396;-31
2022/06/11 01:20:14;;;;;;;;;;;;;;;14.78;100.00;101957.16;5002142;28;20156;-32
2022/06/11 01:23:00;;;;;;;;;;;;;;;14.77;100.00;101963.91;5006641;28;19928;-33
2022/06/11 01:25:32;;;;;;;;;;;;;;;14.75;100.00;101963.38;5004046;28;20364;-33
2022/06/11 01:28:09;;;;;;;;;;;;;;;14.74;100.00;101964.50;5003034;28;19947;-29
2022/06/11 01:30:43;;;;;;;;;;;;;;;14.73;100.00;101974.06;5005572;28;20371;-30
2022/06/11 01:33:14;;;;;;;;;;;;;;;14.75;100.00;101959.72;5003585;28;19936;-28
2022/06/11 01:35:50;;;;;;;;;;;;;;;14.75;100.00;101954.09;5004428;28;20016;-31
2022/06/11 01:38:21;;;;;;;;;;;;;;;14.76;100.00;101953.81;5003715;28;20025;-32
2022/06/11 01:40:51;;;;;;;;;;;;;;;14.76;100.00;101955.78;5005361;28;19933;-28
2022/06/11 01:43:21;;;;;;;;;;;;;;;14.73;100.00;101954.41;5002816;28;19922;-31
2022/06/11 01:45:56;;;;;;;;;;;;;;;14.76;100.00;101948.19;5005163;28;19928;-29
2022/06/11 01:48:25;;;;;;;;;;;;;;;14.75;100.00;101952.13;5002933;28;19926;-31
2022/06/11 01:50:56;;;;;;;;;;;;;;;14.75;100.00;101948.50;5004467;28;19928;-29
2022/06/11 01:53:31;;;;;;;;;;;;;;;14.74;100.00;101949.63;5003272;28;19972;-31
2022/06/11 01:56:08;;;;;;;;;;;;;;;14.74;100.00;101944.00;5004939;28;19921;-31
2022/06/11 01:58:43;;;;;;;;;;;;;;;14.74;100.00;101944.84;5003189;28;19921;-31
2022/06/11 02:01:19;;;;;;;;;;;;;;;14.73;100.00;101954.41;5004933;28;19921;-31
2022/06/11 02:03:52;;;;;;;;;;;;;;;14.73;100.00;101957.22;5002039;28;19926;-34
2022/06/11 02:06:29;;;;;;;;;;;;;;;14.76;100.00;101955.78;5005127;28;20398;-32
2022/06/11 02:09:03;;;;;;;;;;;;;;;14.76;100.00;101962.25;5002864;28;19926;-32
2022/06/11 02:11:33;;;;;;;;;;;;;;;14.75;100.00;101957.75;5003794;28;20290;-31
2022/06/11 02:14:04;;;;;;;;;;;;;;;14.79;100.00;101955.16;5002855;28;19968;-30
2022/06/11 02:16:34;;;;;;;;;;;;;;;14.81;100.00;101958.50;5004464;28;19936;-30
2022/06/11 02:19:05;;;;;;;;;;;;;;;14.81;100.00;101958.50;5002100;28;19944;-30
2022/06/11 02:21:38;;;;;;;;;;;;;;;14.81;100.00;101959.34;5004592;28;19948;-32
2022/06/11 02:24:09;;;;;;;;;;;;;;;14.80;100.00;101963.28;4999490;28;20287;-28
2022/06/11 02:26:39;;;;;;;;;;;;;;;14.81;100.00;101967.75;5007913;28;19975;-31
2022/06/11 02:29:08;;;;;;;;;;;;;;;14.79;100.00;101964.41;5002493;28;19973;-30
2022/06/11 02:31:40;;;;;;;;;;;;;;;14.76;100.00;101965.03;5002881;28;20392;-32
2022/06/11 02:34:08;;;;;;;;;;;;;;;14.77;100.00;101975.16;5001777;28;19921;-31
2022/06/11 02:36:45;;;;;;;;;;;;;;;14.75;100.00;101966.19;5002406;28;19946;-28
2022/06/11 02:39:12;;;;;;;;;;;;;;;14.75;100.00;101966.19;5001214;28;20382;-31
2022/06/11 02:41:42;;;;;;;;;;;;;;;14.75;100.00;101971.81;5001908;28;20377;-31
2022/06/11 02:44:10;;;;;;;;;;;;;;;14.74;100.00;101980.53;5001722;28;19921;-32
2022/06/11 02:46:44;;;;;;;;;;;;;;;14.74;100.00;101972.94;5002192;28;19964;-29
2022/06/11 02:49:16;;;;;;;;;;;;;;;14.73;100.00;101976.03;5002855;28;20460;-31
2022/06/11 02:51:45;;;;;;;;;;;;;;;14.72;100.00;101982.78;5004095;28;19929;-32
2022/06/11 02:54:12;;;;;;;;;;;;;;;14.70;100.00;101982.25;5004255;28;19928;-31
2022/06/11 02:56:40;;;;;;;;;;;;;;;14.68;100.00;101981.72;5004870;28;19953;-28
2022/06/11 02:59:08;;;;;;;;;;;;;;;14.67;100.00;101985.66;5005292;28;19928;-32
2022/06/11 03:01:36;;;;;;;;;;;;;;;14.66;100.00;101989.59;5004470;28;19964;-30
2022/06/11 03:04:06;;;;;;;;;;;;;;;14.64;100.00;101986.25;5004943;28;19929;-30
2022/06/11 03:06:34;;;;;;;;;;;;;;;14.62;100.00;101988.53;4999319;28;20401;-31
2022/06/11 03:09:02;;;;;;;;;;;;;;;14.63;100.00;101987.38;5002944;28;19921;-31
2022/06/11 03:11:29;;;;;;;;;;;;;;;14.63;100.00;101993.84;5000992;28;19921;-32
2022/06/11 03:13:57;;;;;;;;;;;;;;;14.63;100.00;101991.03;5001771;28;19925;-30
2022/06/11 03:16:25;;;;;;;;;;;;;;;14.64;100.00;101997.50;5001380;28;20036;-32
2022/06/11 03:18:52;;;;;;;;;;;;;;;14.61;100.00;102004.53;5003053;28;19928;-32
2022/06/11 03:21:22;;;;;;;;;;;;;;;14.63;100.00;101996.66;5000566;28;19928;-31
2022/06/11 03:23:49;;;;;;;;;;;;;;;14.64;100.00;101994.69;5005385;28;19987;-32
2022/06/11 03:26:17;;;;;;;;;;;;;;;14.63;100.00;102007.88;5008618;28;19922;-32
2022/06/11 03:28:45;;;;;;;;;;;;;;;14.64;100.00;102000.31;5002589;28;19921;-32
2022/06/11 03:31:12;;;;;;;;;;;;;;;14.65;100.00;102002.81;5001323;28;19944;-32
2022/06/11 03:33:40;;;;;;;;;;;;;;;14.66;100.00;102007.31;5002267;28;19929;-31
2022/06/11 03:36:10;;;;;;;;;;;;;;;14.67;100.00;102003.34;4999893;28;19935;-31
2022/06/11 03:38:40;;;;;;;;;;;;;;;14.66;100.00;102004.50;5000718;28;19930;-29
2022/06/11 03:41:07;;;;;;;;;;;;;;;14.68;100.00;102016.28;4996746;28;19965;-29
2022/06/11 03:43:35;;;;;;;;;;;;;;;14.68;100.00;102010.66;5004016;28;20017;-30
2022/06/11 03:46:04;;;;;;;;;;;;;;;14.68;100.00;102007.84;5005422;28;20266;-29
2022/06/11 03:48:33;;;;;;;;;;;;;;;14.68;100.00;102016.28;5004144;28;19925;-33
2022/06/11 03:51:01;;;;;;;;;;;;;;;14.69;100.00;102023.56;5005655;28;19921;-29
2022/06/11 03:53:29;;;;;;;;;;;;;;;14.68;100.00;102015.44;5005110;28;19922;-29
2022/06/11 03:55:58;;;;;;;;;;;;;;;14.69;100.00;102023.56;5004967;28;19951;-31
2022/06/11 03:58:26;;;;;;;;;;;;;;;14.70;100.00;102030.84;5005638;28;20382;-30
2022/06/11 04:03:40;;;;;;;;;;;;;;;14.71;100.00;102040.97;5004612;28;20329;-29
2022/06/11 04:06:08;;;;;;;;;;;;;;;14.72;100.00;102045.44;5005020;28;20012;-28
2022/06/11 04:08:37;;;;;;;;;;;;;;;14.72;100.00;102033.38;5001407;28;19921;-29
2022/06/11 04:11:06;;;;;;;;;;;;;;;14.73;100.00;102043.47;5002308;28;19932;-33
2022/06/11 04:13:35;;;;;;;;;;;;;;;14.74;100.00;102045.16;5004715;28;19933;-31
2022/06/11 04:16:03;;;;;;;;;;;;;;;14.75;100.00;102056.09;5002682;28;19951;-30
2022/06/11 04:18:32;;;;;;;;;;;;;;;14.77;100.00;102053.81;5003617;28;19921;-33
2022/06/11 04:21:00;;;;;;;;;;;;;;;14.78;100.00;102061.13;5002796;28;20266;-29
2022/06/11 04:23:29;;;;;;;;;;;;;;;14.80;100.00;102060.81;5004660;28;19984;-32
2022/06/11 04:25:57;;;;;;;;;;;;;;;14.82;100.00;102062.19;4997268;28;19928;-31
2022/06/11 04:28:28;;;;;;;;;;;;;;;14.81;100.00;102063.31;5004404;28;20004;-33
2022/06/11 04:30:56;;;;;;;;;;;;;;;14.82;100.00;102066.97;5001727;28;19928;-29
2022/06/11 04:33:24;;;;;;;;;;;;;;;14.83;100.00;102063.84;5004462;28;19948;-31
2022/06/11 04:35:51;;;;;;;;;;;;;;;14.86;100.00;102072.81;5002836;28;19926;-31
2022/06/11 04:38:19;;;;;;;;;;;;;;;14.86;100.00;102084.91;5003768;28;19921;-32
2022/06/11 04:40:48;;;;;;;;;;;;;;;14.88;100.00;102076.19;5004198;28;19931;-29
2022/06/11 04:43:16;;;;;;;;;;;;;;;14.88;100.00;102077.03;5005131;28;19972;-31
2022/06/11 04:45:45;;;;;;;;;;;;;;;14.91;100.00;102084.03;5018776;28;20462;-31
2022/06/11 04:48:12;;;;;;;;;;;;;;;14.90;100.00;102085.16;5001434;28;19929;-30
2022/06/11 04:50:40;;;;;;;;;;;;;;;14.95;100.00;102093.53;5003604;28;19928;-29
2022/06/11 04:53:08;;;;;;;;;;;;;;;14.95;100.00;102088.75;4998879;28;19929;-30
2022/06/11 04:55:36;;;;;;;;;;;;;;;14.96;100.00;102092.41;4999421;28;19921;-29
2022/06/11 04:58:04;;;;;;;;;;;;;;;14.97;100.00;102094.06;4999495;28;19928;-34
2022/06/11 05:00:32;;;;;;;;;;;;;;;14.99;100.00;102095.44;4998775;28;19933;-32
2022/06/11 05:03:01;;;;;;;;;;;;;;;15.01;100.00;102093.16;4999997;28;19921;-30
2022/06/11 05:05:30;;;;;;;;;;;;;;;15.04;100.00;102098.19;5004032;28;19921;-34
2022/06/11 05:07:58;;;;;;;;;;;;;;;15.06;100.00;102100.69;4996232;28;20370;-32
2022/06/11 05:10:27;;;;;;;;;;;;;;;15.07;100.00;102108.84;5003687;28;19929;-30
2022/06/11 05:12:54;;;;;;;;;;;;;;;15.07;100.00;102102.38;5002217;28;20331;-32
2022/06/11 05:15:22;;;;;;;;;;;;;;;15.11;100.00;102103.47;5003470;28;20301;-31
2022/06/11 05:17:51;;;;;;;;;;;;;;;15.16;100.00;102103.41;5002048;28;20301;-30
2022/06/11 05:20:20;;;;;;;;;;;;;;;15.22;100.00;102105.00;5003091;28;19925;-31
2022/06/11 05:22:48;;;;;;;;;;;;;;;15.26;100.00;102108.88;5001999;28;19921;-32
2022/06/11 05:25:17;;;;;;;;;;;;;;;15.25;100.00;102109.19;5002957;28;20389;-31
2022/06/11 05:27:46;;;;;;;;;;;;;;;15.24;100.00;102113.97;5001115;28;20393;-31
2022/06/11 05:30:16;;;;;;;;;;;;;;;15.22;100.00;102119.06;5003805;28;19921;-32
2022/06/11 05:32:44;;;;;;;;;;;;;;;15.22;100.00;102119.06;5001934;28;19921;-34
2022/06/11 05:35:14;;;;;;;;;;;;;;;15.19;100.00;102118.84;4998670;28;19925;-31
2022/06/11 05:37:43;;;;;;;;;;;;;;;15.19;100.00;102116.84;4999511;28;19928;-32
2022/06/11 05:40:13;;;;;;;;;;;;;;;15.21;100.00;102119.34;4999140;28;19968;-29
2022/06/11 05:42:40;;;;;;;;;;;;;;;15.23;100.00;102115.09;5004048;28;20349;-32
2022/06/11 05:45:09;;;;;;;;;;;;;;;15.26;100.00;102113.66;5003720;28;20060;-30
2022/06/11 05:47:36;;;;;;;;;;;;;;;15.25;100.00;102115.66;4995424;28;20381;-30
2022/06/11 05:50:05;;;;;;;;;;;;;;;15.26;100.00;102120.13;4997428;28;19928;-30
2022/06/11 05:52:35;;;;;;;;;;;;;;;15.28;100.00;102122.66;5003057;28;20298;-29
2022/06/11 05:55:04;;;;;;;;;;;;;;;15.31;100.00;102127.69;5002965;28;19925;-30
2022/06/11 05:57:32;;;;;;;;;;;;;;;15.34;100.00;102127.09;5002192;28;19922;-31
2022/06/11 06:00:01;;;;;;;;;;;;;;;15.33;100.00;102131.88;5002895;28;19921;-29
2022/06/11 06:02:29;;;;;;;;;;;;;;;15.37;100.00;102118.88;5001840;28;20248;-31
2022/06/11 06:04:57;;;;;;;;;;;;;;;15.43;100.00;102123.28;5001240;28;20370;-31
2022/06/11 06:07:24;;;;;;;;;;;;;;;15.50;100.00;102129.38;5003760;28;19926;-33
2022/06/11 06:09:52;;;;;;;;;;;;;;;15.55;100.00;102136.94;4998341;28;19932;-30
2022/06/11 06:12:21;;;;;;;;;;;;;;;15.65;100.00;102141.59;5001606;28;19985;-29
2022/06/11 06:14:49;;;;;;;;;;;;;;;15.76;100.00;102134.72;5003439;28;20289;-30
2022/06/11 06:17:17;;;;;;;;;;;;;;;15.87;100.00;102138.19;5000814;28;19926;-29
2022/06/11 06:19:59;;;;;;;;;;;;;;;15.94;100.00;102139.50;4993040;28;19965;-29
2022/06/11 06:22:27;;;;;;;;;;;;;;;16.04;100.00;102144.13;5003950;28;19932;-29
2022/06/11 06:24:54;;;;;;;;;;;;;;;16.18;100.00;102140.25;5001913;28;19932;-29
2022/06/11 06:27:23;;;;;;;;;;;;;;;16.30;100.00;102142.59;5002149;28;19926;-29
2022/06/11 06:29:51;;;;;;;;;;;;;;;16.39;100.00;102146.38;5003514;28;19977;-32
2022/06/11 06:32:18;;;;;;;;;;;;;;;16.51;100.00;102152.38;5009031;28;19926;-30
2022/06/11 06:34:46;;;;;;;;;;;;;;;16.74;100.00;102153.44;5002294;28;20396;-32
2022/06/11 06:37:14;;;;;;;;;;;;;;;17.10;100.00;102152.75;4980865;28;19922;-32
2022/06/11 06:39:42;;;;;;;;;;;;;;;17.43;100.00;102159.13;4989259;28;19921;-31
2022/06/11 06:42:09;;;;;;;;;;;;;;;17.76;100.00;102162.72;4998384;28;19921;-30
2022/06/11 06:44:39;;;;;;;;;;;;;;;18.09;100.00;102161.38;5000659;28;19936;-29
2022/06/11 06:47:07;;;;;;;;;;;;;;;18.41;100.00;102165.09;5000984;28;19932;-30
2022/06/11 06:49:34;;;;;;;;;;;;;;;18.74;100.00;102163.75;5000502;28;20402;-31
2022/06/11 06:52:02;;;;;;;;;;;;;;;19.06;100.00;102167.41;4999675;28;19921;-29
2022/06/11 06:54:30;;;;;;;;;;;;;;;19.39;100.00;102165.88;5000253;28;20289;-31
2022/06/11 06:56:57;;;;;;;;;;;;;;;19.76;100.00;102169.38;5000381;28;19937;-31
2022/06/11 06:59:25;;;;;;;;;;;;;;;20.14;100.00;102178.94;4999321;28;20383;-30
2022/06/11 07:01:54;;;;;;;;;;;;;;;20.25;94.00;102171.75;5001609;28;19921;-30
2022/06/11 07:04:21;;;;;;;;;;;;;;;20.44;93.98;102168.63;5000704;28;19925;-30
2022/06/11 07:06:52;;;;;;;;;;;;;;;20.58;92.26;102171.28;5001737;28;19933;-30
2022/06/11 07:09:19;;;;;;;;;;;;;;;20.85;94.24;102184.25;5006041;28;19932;-32
2022/06/11 07:11:47;;;;;;;;;;;;;;;20.97;88.12;102179.56;5002487;28;19944;-30
2022/06/11 07:14:15;;;;;;;;;;;;;;;21.17;87.97;102180.84;5003846;28;19928;-30
2022/06/11 07:16:45;;;;;;;;;;;;;;;21.25;85.90;102184.84;5002705;28;19922;-30
2022/06/11 07:19:16;;;;;;;;;;;;;;;21.58;85.59;102191.53;5003063;28;19921;-30
2022/06/11 07:21:46;;;;;;;;;;;;;;;21.57;77.79;102189.06;5002409;28;19926;-30
2022/06/11 07:24:16;;;;;;;;;;;;;;;21.62;77.15;102191.69;5001188;28;19932;-30
2022/06/11 07:26:45;;;;;;;;;;;;;;;21.80;76.16;102189.56;5001396;28;19993;-30
2022/06/11 07:29:14;;;;;;;;;;;;;;;22.09;77.43;102186.75;4998566;28;20009;-33
2022/06/11 07:31:44;;;;;;;;;;;;;;;22.32;74.12;102190.94;5002557;28;19922;-31
2022/06/11 07:34:14;;;;;;;;;;;;;;;22.59;74.63;102186.66;5005683;28;19921;-30
2022/06/11 07:36:42;;;;;;;;;;;;;;;22.59;67.77;102191.50;5000640;28;19945;-30
2022/06/11 07:39:10;;;;;;;;;;;;;;;22.54;67.03;102194.59;4999645;28;19921;-30
2022/06/11 07:41:37;;;;;;;;;;;;;;;22.48;66.15;102196.81;4997178;28;19925;-34
2022/06/11 07:44:11;;;;;;;;;;;;;;;22.60;67.45;102194.00;4999566;28;19980;-33
2022/06/11 07:46:38;;;;;;;;;;;;;;;22.87;66.91;102192.63;5000239;28;19965;-30
2022/06/11 07:49:06;;;;;;;;;;;;;;;22.95;65.91;102188.88;4998479;28;19925;-30
2022/06/11 07:51:35;;;;;;;;;;;;;;;23.05;67.17;102201.81;5000330;28;20004;-28
2022/06/11 07:54:03;;;;;;;;;;;;;;;23.30;68.83;102188.47;4996912;28;20440;-33
2022/06/11 07:56:31;;;;;;;;;;;;;;;23.61;66.93;102193.59;4999539;28;20370;-31
2022/06/11 07:58:58;;;;;;;;;;;;;;;23.94;64.35;102193.50;4999018;28;19925;-30
2022/06/11 08:01:26;;;;;;;;;;;;;;;24.20;63.75;102202.47;4999911;28;19932;-33
2022/06/11 08:03:54;;;;;;;;;;;;;;;24.59;63.48;102211.41;5000985;28;20343;-32
2022/06/11 08:06:21;;;;;;;;;;;;;;;24.87;63.04;102200.00;5000459;28;19926;-33
2022/06/11 08:08:50;;;;;;;;;;;;;;;25.07;56.72;102204.69;5001156;28;19925;-31
2022/06/11 08:11:18;;;;;;;;;;;;;;;25.11;56.10;102210.50;5000384;28;20021;-30
2022/06/11 08:13:47;;;;;;;;;;;;;;;24.72;57.39;102221.63;5002259;28;19925;-31
2022/06/11 08:16:15;;;;;;;;;;;;;;;24.31;54.44;102226.50;4999317;28;20366;-31
2022/06/11 08:18:44;;;;;;;;;;;;;;;24.03;55.93;102223.53;5002333;28;19972;-31
2022/06/11 08:21:11;;;;;;;;;;;;;;;23.57;54.46;102226.88;4999808;28;19926;-31
2022/06/11 08:23:41;;;;;;;;;;;;;;;23.30;60.49;102219.78;5001227;28;19926;-30
2022/06/11 08:26:10;;;;;;;;;;;;;;;23.40;58.82;102225.03;5007169;28;19929;-34
2022/06/11 08:28:38;;;;;;;;;;;;;;;23.31;58.48;102222.28;5002152;28;19944;-32
2022/06/11 08:31:06;;;;;;;;;;;;;;;23.17;57.96;102221.78;4998891;28;20020;-31
2022/06/11 08:33:34;;;;;;;;;;;;;;;23.33;66.02;102221.94;5000266;28;20009;-32
2022/06/11 08:36:01;;;;;;;;;;;;;;;23.92;65.04;102232.94;4999523;28;20003;-31
2022/06/11 08:38:29;;;;;;;;;;;;;;;24.60;63.40;102235.91;4998761;28;20395;-30
2022/06/11 08:40:57;;;;;;;;;;;;;;;25.08;57.60;102236.94;5001248;28;20016;-31
2022/06/11 08:43:27;;;;;;;;;;;;;;;25.48;55.11;102233.97;5003489;28;20260;-33
2022/06/11 08:45:57;;;;;;;;;;;;;;;25.67;58.00;102225.50;5003934;28;19928;-31
2022/06/11 08:48:40;;;;;;;;;;;;;;;25.71;50.90;102220.72;4998764;28;19921;-30
2022/06/11 08:51:12;;;;;;;;;;;;;;;25.62;56.76;102223.75;5013840;28;19926;-31
2022/06/11 08:53:40;;;;;;;;;;;;;;;25.81;56.21;102227.91;5000600;28;19925;-31
2022/06/11 08:56:13;;;;;;;;;;;;;;;25.96;54.08;102225.03;4999413;28;20020;-31
2022/06/11 08:58:49;;;;;;;;;;;;;;;25.70;49.41;102222.75;4998789;28;20294;-30
2022/06/11 09:01:23;;;;;;;;;;;;;;;25.49;54.56;102227.06;4999278;28;19922;-31
2022/06/11 09:03:58;;;;;;;;;;;;;;;25.62;52.18;102228.59;4999262;28;19928;-32
2022/06/11 09:06:37;;;;;;;;;;;;;;;25.56;51.75;102236.66;4998339;28;19922;-30
2022/06/11 09:09:10;;;;;;;;;;;;;;;25.43;53.91;102235.06;4999409;28;20032;-30
2022/06/11 09:11:50;;;;;;;;;;;;;;;25.37;51.76;102237.38;4999256;28;19925;-30
2022/06/11 09:14:32;;;;;;;;;;;;;;;25.17;53.61;102231.91;4998531;28;19925;-33
2022/06/11 09:17:12;;;;;;;;;;;;;;;25.10;56.93;102232.53;4999486;28;19925;-29
2022/06/11 09:19:47;;;;;;;;;;;;;;;24.92;52.45;102229.16;4999826;28;19922;-28
2022/06/11 09:22:29;;;;;;;;;;;;;;;24.75;53.99;102248.63;5004244;28;20386;-27
2022/06/11 09:25:02;;;;;;;;;;;;;;;24.52;54.47;102234.06;5002605;28;19928;-27
2022/06/11 09:27:36;;;;;;;;;;;;;;;24.20;54.72;102233.84;5003580;28;20012;-27
2022/06/11 09:30:06;;;;;;;;;;;;;;;23.90;55.18;102235.31;5003222;28;19922;-29
2022/06/11 09:32:38;;;;;;;;;;;;;;;23.99;60.22;102236.84;4998940;28;20012;-27
2022/06/11 09:35:08;;;;;;;;;;;;;;;24.14;55.73;102241.00;4998622;28;20442;-27
2022/06/11 09:37:41;;;;;;;;;;;;;;;24.34;57.89;102228.63;4999501;28;19957;-27
2022/06/11 09:40:12;;;;;;;;;;;;;;;24.31;55.89;102239.94;5003984;28;19922;-27
2022/06/11 09:42:45;;;;;;;;;;;;;;;24.13;55.18;102239.34;5000052;28;19932;-27
2022/06/11 09:45:18;;;;;;;;;;;;;;;24.12;57.55;102243.38;5002871;28;19921;-27
2022/06/11 09:47:51;;;;;;;;;;;;;;;23.96;56.87;102251.00;5001968;28;20471;-29
2022/06/11 09:50:22;;;;;;;;;;;;;;;23.86;56.39;102243.75;5000669;28;20353;-28
2022/06/11 09:52:53;;;;;;;;;;;;;;;23.96;58.51;102248.16;4997034;28;19929;-28
2022/06/11 09:55:27;;;;;;;;;;;;;;;24.09;59.37;102246.09;4998841;28;19921;-29
2022/06/11 09:58:01;;;;;;;;;;;;;;;24.02;57.35;102258.09;5000075;28;20267;-30
2022/06/11 10:00:54;;;;;;;;;;;;;;;23.86;57.62;102269.41;5002720;28;19944;-29
2022/06/11 10:03:25;;;;;;;;;;;;;;;23.82;58.80;102256.22;5001271;28;19922;-28
2022/06/11 10:05:56;;;;;;;;;;;;;;;23.80;59.01;102261.44;5001955;28;19928;-27
2022/06/11 10:08:29;;;;;;;;;;;;;;;23.83;59.19;102261.56;5000738;28;19989;-28
2022/06/11 10:10:57;;;;;;;;;;;;;;;23.76;58.74;102266.19;5002164;28;19921;-27
2022/06/11 10:13:34;;;;;;;;;;;;;;;23.74;57.93;102265.72;5000435;28;19948;-30
2022/06/11 10:16:13;;;;;;;;;;;;;;;23.74;59.39;102265.72;5000729;28;19926;-28
2022/06/11 10:18:41;;;;;;;;;;;;;;;23.68;59.23;102268.81;5002070;28;19925;-27
2022/06/11 10:21:13;;;;;;;;;;;;;;;23.83;61.33;102270.09;5001847;28;19922;-27
2022/06/11 10:23:45;;;;;;;;;;;;;;;23.61;57.78;102279.94;5002137;28;19932;-27
2022/06/11 10:26:17;;;;;;;;;;;;;;;23.49;60.43;102270.50;4999904;28;19922;-28
2022/06/11 10:28:46;;;;;;;;;;;;;;;23.38;60.27;102264.44;5003520;28;19925;-28
2022/06/11 10:31:17;;;;;;;;;;;;;;;23.42;62.22;102276.78;5001586;28;20294;-27
2022/06/11 10:33:48;;;;;;;;;;;;;;;23.35;63.68;102268.00;5004428;28;19932;-27
2022/06/11 10:36:19;;;;;;;;;;;;;;;23.47;64.31;102275.72;5002511;28;19922;-31
2022/06/11 10:38:51;;;;;;;;;;;;;;;23.52;63.62;102279.22;5003450;28;19921;-29
2022/06/11 10:41:22;;;;;;;;;;;;;;;23.62;61.87;102281.59;5009894;28;19922;-31
2022/06/11 10:43:52;;;;;;;;;;;;;;;23.76;63.20;102277.59;5003598;28;19925;-28
2022/06/11 10:46:21;;;;;;;;;;;;;;;23.80;63.84;102281.38;5006627;28;19928;-26
2022/06/11 10:48:49;;;;;;;;;;;;;;;23.66;61.43;102276.88;5004137;28;20255;-30
2022/06/11 10:51:21;;;;;;;;;;;;;;;23.61;63.18;102282.78;5005787;28;20020;-27
2022/06/11 10:53:56;;;;;;;;;;;;;;;23.48;63.39;102288.78;5004157;28;19952;-29
2022/06/11 10:56:29;;;;;;;;;;;;;;;23.50;67.56;102289.28;5006150;28;19932;-29
2022/06/11 10:58:59;;;;;;;;;;;;;;;23.24;65.71;102293.22;5003761;28;19928;-29
2022/06/11 11:01:30;;;;;;;;;;;;;;;22.94;68.61;102294.56;5006177;28;19925;-29
2022/06/11 11:03:59;;;;;;;;;;;;;;;22.78;71.07;102297.19;5004312;28;19923;-31
2022/06/11 11:06:29;;;;;;;;;;;;;;;22.60;73.25;102295.63;5005438;28;19922;-27
2022/06/11 11:08:58;;;;;;;;;;;;;;;22.44;75.14;102297.41;5003895;28;19921;-31
2022/06/11 11:11:26;;;;;;;;;;;;;;;22.32;75.37;102295.34;5005662;28;19936;-29
2022/06/11 11:14:00;;;;;;;;;;;;;;;22.08;76.41;102295.97;5005106;28;19921;-28
2022/06/11 11:16:32;;;;;;;;;;;;;;;21.96;78.27;102291.00;5006275;28;19929;-27
2022/06/11 11:19:05;;;;;;;;;;;;;;;22.27;79.84;102278.47;5005071;28;19925;-26
2022/06/11 11:21:34;;;;;;;;;;;;;;;22.52;79.18;102288.84;5001388;28;19922;-29
2022/06/11 11:24:06;;;;;;;;;;;;;;;22.22;76.67;102288.03;5001141;28;19925;-26
2022/06/11 11:26:42;;;;;;;;;;;;;;;22.09;77.97;102285.44;4993980;28;19925;-27
2022/06/11 11:29:14;;;;;;;;;;;;;;;22.15;79.10;102286.91;5005018;28;19921;-27
2022/06/11 11:31:46;;;;;;;;;;;;;;;22.23;76.12;102286.00;5003290;28;19926;-30
2022/06/11 11:34:15;;;;;;;;;;;;;;;22.17;77.41;102288.25;5004349;28;19928;-27
2022/06/11 11:36:43;;;;;;;;;;;;;;;22.49;79.96;102298.06;5005349;28;19960;-28
2022/06/11 11:39:18;;;;;;;;;;;;;;;22.43;76.41;102296.59;5005040;28;19922;-29
2022/06/11 11:42:01;;;;;;;;;;;;;;;22.26;78.68;102286.16;5000505;28;19925;-27
2022/06/11 11:44:34;;;;;;;;;;;;;;;22.15;78.53;102289.75;5000879;28;20294;-27
2022/06/11 11:47:06;;;;;;;;;;;;;;;22.14;78.71;102294.59;5004876;28;19933;-30
2022/06/11 11:49:34;;;;;;;;;;;;;;;22.21;79.51;102297.72;5001174;28;20005;-30
2022/06/11 11:52:04;;;;;;;;;;;;;;;22.02;79.75;102296.50;5005530;28;20293;-27
2022/06/11 11:54:32;;;;;;;;;;;;;;;21.82;81.50;102304.56;5004672;28;19928;-28
2022/06/11 11:57:01;;;;;;;;;;;;;;;21.80;83.49;102301.25;5005470;28;20016;-30
2022/06/11 11:59:30;;;;;;;;;;;;;;;21.73;84.12;102297.28;5005319;28;19921;-29
2022/06/11 12:02:05;;;;;;;;;;;;;;;21.73;86.14;102302.97;5004471;28;20108;-28
2022/06/11 12:04:36;;;;;;;;;;;;;;;21.70;84.86;102295.94;5004789;28;20385;-28
2022/06/11 12:07:06;;;;;;;;;;;;;;;21.65;83.25;102299.81;5004184;28;19936;-29
2022/06/11 12:09:37;;;;;;;;;;;;;;;21.63;83.86;102290.78;5004110;28;19921;-29
2022/06/11 12:12:11;;;;;;;;;;;;;;;21.87;82.48;102295.03;4998064;28;19921;-30
2022/06/11 12:14:39;;;;;;;;;;;;;;;21.99;81.10;102297.97;5004730;28;20279;-28
2022/06/11 12:17:16;;;;;;;;;;;;;;;21.84;82.69;102295.72;5001995;28;19925;-30
2022/06/11 12:19:49;;;;;;;;;;;;;;;21.64;83.20;102295.28;5004688;28;20006;-30
2022/06/11 12:22:22;;;;;;;;;;;;;;;21.79;84.60;102293.88;5002352;28;20315;-29
2022/06/11 12:24:50;;;;;;;;;;;;;;;21.90;82.81;102283.00;4999587;28;19928;-32
2022/06/11 12:27:25;;;;;;;;;;;;;;;21.72;81.07;102293.59;5000286;28;19921;-29
2022/06/11 12:29:55;;;;;;;;;;;;;;;21.56;81.25;102284.81;5003579;28;20024;-29
2022/06/11 12:32:25;;;;;;;;;;;;;;;21.60;83.84;102290.63;5002515;28;19925;-30
2022/06/11 12:34:54;;;;;;;;;;;;;;;21.49;83.52;102295.00;5004221;28;20417;-30
2022/06/11 12:37:26;;;;;;;;;;;;;;;21.32;84.93;102290.22;5001281;28;20456;-30
2022/06/11 12:39:59;;;;;;;;;;;;;;;21.07;86.47;102293.91;5004445;28;19921;-27
2022/06/11 12:42:31;;;;;;;;;;;;;;;20.99;87.78;102292.72;5004112;28;19969;-27
2022/06/11 12:45:09;;;;;;;;;;;;;;;20.98;87.28;102291.09;4999439;28;19925;-29
2022/06/11 12:47:47;;;;;;;;;;;;;;;20.82;88.41;102293.56;5002128;28;20012;-29